Terminal Aerodrome Forecast
Issued by NWS

Home | Current Version | Previous Version | Text Only | Print | Product List | Glossary On
Versions: 1 2 3 4 5 6 7 8 9 10 11 12 13
427
FTUS43 KICT 232320
TAFHUT
TAF
KHUT 232320Z 2400/2424 17011KT P6SM SCT100
     FM240300 16007KT P6SM SCT150
     FM241500 21011KT P6SM SCT250
     FM242000 16011KT P6SM SCT100 BKN150=

USA.gov is the U.S. government's official web portal to all federal, state and local government web resources and services.